Sheffield, MA

2:08 PM EDT on March 31, 2015 (GMT -0400)
Sheffield | | Change Station
CLOSE
Current Station
Personal Weather Station
Location: Sheffield, MA
Elevation: 817 ft
Nearby Weather Stations

Elev 817 ft 42.12 °N, 73.41 °W | Updated 7 minutes ago

Partly Cloudy
Partly Cloudy
45.3 °F
Feels Like 44 °F
N
3.2
Wind Variable Wind from SW

Today
High -- | Low -- °F
--% Chance of Precip.
Yesterday
High -- | Low -- °F
Precip. -- in
6:38 AM 7:17 PM
Waxing Gibbous, 88% visible
Pressure 29.70 in
Visibility 10.0 miles
Clouds Overcast 9500 ft
Windchill 44 °F
Dew Point 25 °F
Humidity 45%
Rainfall 0.00 in
Snow Depth Not available.
UV 2 out of 12
Pollen 8.00 out of 12
Air Quality Not available.
Flu Activity Not available.
METAR KPSF 311754Z AUTO 30010KT 10SM OVC095 04/M07 A2969 RMK AO2 SLP057 T00391072 10039 20000 58018

More Conditions Fewer Conditions

Pressure 29.70 in
Visibility 10.0 miles
Clouds Overcast 9500 ft
Windchill 44 °F
Dew Point 25 °F
Humidity 45%
Rainfall 0.00 in
Snow Depth Not available.
UV 2 out of 12
Pollen 8.00 out of 12
Air Quality Not available.
Flu Activity Not available.
METAR KPSF 311754Z AUTO 30010KT 10SM OVC095 04/M07 A2969 RMK AO2 SLP057 T00391072 10039 20000 58018

More Conditions Fewer Conditions

10-Day Weather Forecast

Almanac

Astronomy

Mar. 31, 2015 Rise Set
Actual Time
Civil Twilight
Nautical Twilight
Astronomical Twilight
Moon
Length of Visible Light
Length of Day
Tomorrow will be .
, % of the Moon is Illuminated

Today's Extremes

State Highs State Lows

Community

WunderPhotos

Upload Photos

1,809,786 photos uploaded!

WunderBlogs® & News

Nearby

Air Quality

  Air Quality AQ Index Pollutant
Not available.

Snow Depth

Station Depth Elevation

Earthquake Activity

City Distance Mag. Time & Date
Minimum magnitude displayed is 2.5.

Coastal Water Temperatures

Place Temperature

Stations

Nearby Weather Stations

Station Location Temp. Windchill Dew Point Humidity Wind Precip. Elev Updated Type